sensor_id;sensor_type;location;lat;lon;timestamp;pressure;altitude;pressure_sealevel;temperature;humidity
68871;BME280;55906;52.278;6.808;2023-01-15T00:00:57;99663.97;;;8.02;86.33
68871;BME280;55906;52.278;6.808;2023-01-15T00:03:25;99668.34;;;8.03;86.16
68871;BME280;55906;52.278;6.808;2023-01-15T00:05:52;99654.44;;;8.06;86.50
68871;BME280;55906;52.278;6.808;2023-01-15T00:08:19;99665.78;;;8.06;86.61
68871;BME280;55906;52.278;6.808;2023-01-15T00:10:46;99664.00;;;8.03;87.21
68871;BME280;55906;52.278;6.808;2023-01-15T00:13:13;99657.91;;;8.05;87.06
68871;BME280;55906;52.278;6.808;2023-01-15T00:15:39;99657.94;;;8.06;87.19
68871;BME280;55906;52.278;6.808;2023-01-15T00:18:06;99658.84;;;8.08;86.86
68871;BME280;55906;52.278;6.808;2023-01-15T00:20:34;99668.44;;;8.08;86.25
68871;BME280;55906;52.278;6.808;2023-01-15T00:23:01;99658.88;;;8.11;86.82
68871;BME280;55906;52.278;6.808;2023-01-15T00:25:27;99651.00;;;8.10;86.09
68871;BME280;55906;52.278;6.808;2023-01-15T00:28:12;99654.44;;;8.07;85.79
68871;BME280;55906;52.278;6.808;2023-01-15T00:30:40;99655.34;;;8.08;85.56
68871;BME280;55906;52.278;6.808;2023-01-15T00:33:07;99656.25;;;8.11;85.43
68871;BME280;55906;52.278;6.808;2023-01-15T00:35:35;99654.47;;;8.09;84.04
68871;BME280;55906;52.278;6.808;2023-01-15T00:38:01;99663.28;;;8.14;83.37
68871;BME280;55906;52.278;6.808;2023-01-15T00:40:28;99658.06;;;8.15;82.42
68871;BME280;55906;52.278;6.808;2023-01-15T00:42:54;99667.66;;;8.13;81.56
68871;BME280;55906;52.278;6.808;2023-01-15T00:45:21;99673.75;;;8.12;81.75
68871;BME280;55906;52.278;6.808;2023-01-15T00:47:48;99670.25;;;8.12;81.81
68871;BME280;55906;52.278;6.808;2023-01-15T00:50:15;99670.19;;;8.09;81.57
68871;BME280;55906;52.278;6.808;2023-01-15T00:52:43;99655.44;;;8.14;81.13
68871;BME280;55906;52.278;6.808;2023-01-15T00:55:09;99662.34;;;8.10;80.83
68871;BME280;55906;52.278;6.808;2023-01-15T00:57:36;99675.47;;;8.12;81.22
68871;BME280;55906;52.278;6.808;2023-01-15T01:00:04;99667.63;;;8.12;80.98
68871;BME280;55906;52.278;6.808;2023-01-15T01:02:30;99666.69;;;8.08;80.08
68871;BME280;55906;52.278;6.808;2023-01-15T01:04:57;99657.94;;;8.08;79.88
68871;BME280;55906;52.278;6.808;2023-01-15T01:07:24;99658.88;;;8.11;80.56
68871;BME280;55906;52.278;6.808;2023-01-15T01:09:51;99668.47;;;8.11;79.82
68871;BME280;55906;52.278;6.808;2023-01-15T01:12:18;99673.72;;;8.11;78.92
68871;BME280;55906;52.278;6.808;2023-01-15T01:14:45;99673.75;;;8.12;79.31
68871;BME280;55906;52.278;6.808;2023-01-15T01:17:12;99678.03;;;8.07;79.30
68871;BME280;55906;52.278;6.808;2023-01-15T01:19:39;99680.66;;;8.07;78.90
68871;BME280;55906;52.278;6.808;2023-01-15T01:22:05;99698.97;;;8.07;79.28
68871;BME280;55906;52.278;6.808;2023-01-15T01:24:32;99699.03;;;8.10;79.14
68871;BME280;55906;52.278;6.808;2023-01-15T01:27:00;99687.72;;;8.13;79.17
68871;BME280;55906;52.278;6.808;2023-01-15T01:29:26;99700.69;;;8.05;79.03
68871;BME280;55906;52.278;6.808;2023-01-15T01:31:53;99697.28;;;8.11;78.79
68871;BME280;55906;52.278;6.808;2023-01-15T01:34:19;99677.16;;;8.07;78.89
68871;BME280;55906;52.278;6.808;2023-01-15T01:36:46;99683.25;;;8.06;79.35
68871;BME280;55906;52.278;6.808;2023-01-15T01:39:15;99683.19;;;8.02;78.96
68871;BME280;55906;52.278;6.808;2023-01-15T01:41:42;99682.34;;;8.05;78.52
68871;BME280;55906;52.278;6.808;2023-01-15T01:47:12;99685.81;;;8.02;79.22
68871;BME280;55906;52.278;6.808;2023-01-15T01:49:43;99691.88;;;8.00;79.31
68871;BME280;55906;52.278;6.808;2023-01-15T01:52:14;99688.34;;;7.98;79.60
68871;BME280;55906;52.278;6.808;2023-01-15T01:54:45;99685.69;;;7.96;79.92
68871;BME280;55906;52.278;6.808;2023-01-15T01:57:13;99689.19;;;7.97;79.36
68871;BME280;55906;52.278;6.808;2023-01-15T01:59:42;99696.34;;;8.07;78.80
68871;BME280;55906;52.278;6.808;2023-01-15T02:02:10;99692.84;;;8.07;78.41
68871;BME280;55906;52.278;6.808;2023-01-15T02:04:37;99693.75;;;8.07;78.40
68871;BME280;55906;52.278;6.808;2023-01-15T02:07:04;99698.97;;;8.07;78.06
68871;BME280;55906;52.278;6.808;2023-01-15T02:09:31;99677.97;;;8.04;78.12
68871;BME280;55906;52.278;6.808;2023-01-15T02:12:03;99719.03;;;8.05;78.15
68871;BME280;55906;52.278;6.808;2023-01-15T02:14:37;99691.97;;;8.06;78.23
68871;BME280;55906;52.278;6.808;2023-01-15T02:17:08;99689.41;;;8.09;78.36
68871;BME280;55906;52.278;6.808;2023-01-15T02:19:48;99681.44;;;8.03;77.14
68871;BME280;55906;52.278;6.808;2023-01-15T02:22:25;99691.94;;;8.05;76.98
68871;BME280;55906;52.278;6.808;2023-01-15T02:24:59;99695.44;;;8.05;76.93
68871;BME280;55906;52.278;6.808;2023-01-15T02:27:32;99687.50;;;8.00;76.41
68871;BME280;55906;52.278;6.808;2023-01-15T02:30:03;99693.63;;;8.01;76.72
68871;BME280;55906;52.278;6.808;2023-01-15T02:32:35;99685.81;;;8.02;76.06
68871;BME280;55906;52.278;6.808;2023-01-15T02:35:08;99680.63;;;8.06;76.79
68871;BME280;55906;52.278;6.808;2023-01-15T02:37:40;99684.00;;;7.98;76.37
68871;BME280;55906;52.278;6.808;2023-01-15T02:40:10;99673.50;;;7.97;76.29
68871;BME280;55906;52.278;6.808;2023-01-15T02:42:40;99668.31;;;8.00;76.25
68871;BME280;55906;52.278;6.808;2023-01-15T02:45:10;99669.16;;;7.99;76.10
68871;BME280;55906;52.278;6.808;2023-01-15T02:47:40;99668.28;;;7.98;76.24
68871;BME280;55906;52.278;6.808;2023-01-15T02:50:12;99667.25;;;7.89;75.91
68871;BME280;55906;52.278;6.808;2023-01-15T02:52:42;99675.09;;;7.89;76.26
68871;BME280;55906;52.278;6.808;2023-01-15T02:55:13;99675.91;;;7.85;76.33
68871;BME280;55906;52.278;6.808;2023-01-15T02:57:45;99680.22;;;7.83;75.33
68871;BME280;55906;52.278;6.808;2023-01-15T03:00:14;99672.38;;;7.83;76.09
68871;BME280;55906;52.278;6.808;2023-01-15T03:02:45;99673.22;;;7.80;76.16
68871;BME280;55906;52.278;6.808;2023-01-15T03:05:17;99677.53;;;7.80;76.65
68871;BME280;55906;52.278;6.808;2023-01-15T03:07:49;99671.34;;;7.76;76.32
68871;BME280;55906;52.278;6.808;2023-01-15T03:10:19;99671.28;;;7.71;76.40
68871;BME280;55906;52.278;6.808;2023-01-15T03:12:57;99664.28;;;7.70;75.23
68871;BME280;55906;52.278;6.808;2023-01-15T03:15:39;99666.00;;;7.68;76.45
68871;BME280;55906;52.278;6.808;2023-01-15T03:18:26;99670.31;;;7.66;75.73
68871;BME280;55906;52.278;6.808;2023-01-15T03:20:56;99669.47;;;7.67;75.38
68871;BME280;55906;52.278;6.808;2023-01-15T03:23:25;99659.75;;;7.62;75.66
68871;BME280;55906;52.278;6.808;2023-01-15T03:25:54;99662.38;;;7.62;75.40
68871;BME280;55906;52.278;6.808;2023-01-15T03:28:24;99642.31;;;7.62;75.50
68871;BME280;55906;52.278;6.808;2023-01-15T03:30:52;99664.91;;;7.57;75.71
68871;BME280;55906;52.278;6.808;2023-01-15T03:33:19;99637.88;;;7.58;75.59
68871;BME280;55906;52.278;6.808;2023-01-15T03:35:48;99648.31;;;7.55;75.27
68871;BME280;55906;52.278;6.808;2023-01-15T03:38:17;99642.22;;;7.56;75.89
68871;BME280;55906;52.278;6.808;2023-01-15T03:40:49;99632.56;;;7.54;75.54
68871;BME280;55906;52.278;6.808;2023-01-15T03:43:20;99635.16;;;7.52;75.70
68871;BME280;55906;52.278;6.808;2023-01-15T03:46:25;99638.59;;;7.48;75.65
68871;BME280;55906;52.278;6.808;2023-01-15T03:49:01;99656.00;;;7.46;75.67
68871;BME280;55906;52.278;6.808;2023-01-15T03:51:33;99654.16;;;7.42;76.51
68871;BME280;55906;52.278;6.808;2023-01-15T03:54:06;99655.06;;;7.44;75.99
68871;BME280;55906;52.278;6.808;2023-01-15T03:56:36;99645.41;;;7.40;76.43
68871;BME280;55906;52.278;6.808;2023-01-15T03:59:09;99648.91;;;7.41;76.96
68871;BME280;55906;52.278;6.808;2023-01-15T04:01:41;99655.81;;;7.37;77.29
68871;BME280;55906;52.278;6.808;2023-01-15T04:04:10;99654.91;;;7.35;76.61
68871;BME280;55906;52.278;6.808;2023-01-15T04:06:39;99661.00;;;7.34;77.44
68871;BME280;55906;52.278;6.808;2023-01-15T04:09:09;99641.78;;;7.32;77.10
68871;BME280;55906;52.278;6.808;2023-01-15T04:11:36;99653.91;;;7.28;77.77
68871;BME280;55906;52.278;6.808;2023-01-15T04:14:04;99656.59;;;7.31;76.99
68871;BME280;55906;52.278;6.808;2023-01-15T04:16:31;99663.47;;;7.26;77.38
68871;BME280;55906;52.278;6.808;2023-01-15T04:19:00;99667.75;;;7.23;77.36
68871;BME280;55906;52.278;6.808;2023-01-15T04:21:26;99639.84;;;7.22;77.14
68871;BME280;55906;52.278;6.808;2023-01-15T04:23:53;99636.41;;;7.26;77.31
68871;BME280;55906;52.278;6.808;2023-01-15T04:26:19;99647.78;;;7.28;76.64
68871;BME280;55906;52.278;6.808;2023-01-15T04:28:46;99645.94;;;7.22;77.92
68871;BME280;55906;52.278;6.808;2023-01-15T04:31:13;99653.88;;;7.27;76.66
68871;BME280;55906;52.278;6.808;2023-01-15T04:33:40;99648.56;;;7.22;77.11
68871;BME280;55906;52.278;6.808;2023-01-15T04:36:09;99642.34;;;7.16;77.52
68871;BME280;55906;52.278;6.808;2023-01-15T04:38:36;99645.00;;;7.19;77.14
68871;BME280;55906;52.278;6.808;2023-01-15T04:41:04;99633.56;;;7.14;77.24
68871;BME280;55906;52.278;6.808;2023-01-15T04:43:48;99647.47;;;7.11;77.24
68871;BME280;55906;52.278;6.808;2023-01-15T04:46:34;99651.88;;;7.14;78.17
68871;BME280;55906;52.278;6.808;2023-01-15T04:49:01;99651.91;;;7.15;76.60
68871;BME280;55906;52.278;6.808;2023-01-15T04:51:29;99637.91;;;7.13;77.36
68871;BME280;55906;52.278;6.808;2023-01-15T04:53:55;99651.00;;;7.13;76.96
68871;BME280;55906;52.278;6.808;2023-01-15T04:56:22;99645.75;;;7.13;77.42
68871;BME280;55906;52.278;6.808;2023-01-15T04:58:49;99647.47;;;7.11;77.88
68871;BME280;55906;52.278;6.808;2023-01-15T05:01:16;99647.53;;;7.14;77.22
68871;BME280;55906;52.278;6.808;2023-01-15T05:03:43;99641.47;;;7.17;77.33
68871;BME280;55906;52.278;6.808;2023-01-15T05:06:10;99641.41;;;7.14;77.30
68871;BME280;55906;52.278;6.808;2023-01-15T05:08:40;99640.53;;;7.13;77.41
68871;BME280;55906;52.278;6.808;2023-01-15T05:11:06;99637.00;;;7.11;76.63
68871;BME280;55906;52.278;6.808;2023-01-15T05:13:33;99641.41;;;7.14;76.97
68871;BME280;55906;52.278;6.808;2023-01-15T05:16:07;99651.84;;;7.12;77.08
68871;BME280;55906;52.278;6.808;2023-01-15T05:18:34;99644.06;;;7.15;76.34
68871;BME280;55906;52.278;6.808;2023-01-15T05:21:01;99645.00;;;7.19;76.02
68871;BME280;55906;52.278;6.808;2023-01-15T05:23:28;99649.38;;;7.20;76.98
68871;BME280;55906;52.278;6.808;2023-01-15T05:25:56;99642.38;;;7.19;77.23
68871;BME280;55906;52.278;6.808;2023-01-15T05:28:23;99649.25;;;7.14;78.49
68871;BME280;55906;52.278;6.808;2023-01-15T05:30:49;99638.66;;;7.06;78.95
68871;BME280;55906;52.278;6.808;2023-01-15T05:33:16;99630.66;;;6.98;79.29
68871;BME280;55906;52.278;6.808;2023-01-15T05:35:43;99644.59;;;6.97;79.54
68871;BME280;55906;52.278;6.808;2023-01-15T05:38:09;99640.91;;;6.88;79.04
68871;BME280;55906;52.278;6.808;2023-01-15T05:40:36;99651.44;;;6.92;78.60
68871;BME280;55906;52.278;6.808;2023-01-15T05:43:04;99637.38;;;6.86;79.24
68871;BME280;55906;52.278;6.808;2023-01-15T05:45:33;99651.38;;;6.89;78.96
68871;BME280;55906;52.278;6.808;2023-01-15T05:48:00;99650.41;;;6.84;78.14
68871;BME280;55906;52.278;6.808;2023-01-15T05:50:26;99635.59;;;6.85;79.21
68871;BME280;55906;52.278;6.808;2023-01-15T05:52:53;99635.59;;;6.85;78.51
68871;BME280;55906;52.278;6.808;2023-01-15T05:55:20;99639.94;;;6.83;78.29
68871;BME280;55906;52.278;6.808;2023-01-15T05:57:46;99649.56;;;6.85;77.74
68871;BME280;55906;52.278;6.808;2023-01-15T06:00:16;99632.13;;;6.84;78.03
68871;BME280;55906;52.278;6.808;2023-01-15T06:02:42;99632.09;;;6.83;78.50
68871;BME280;55906;52.278;6.808;2023-01-15T06:05:09;99618.94;;;6.80;77.61
68871;BME280;55906;52.278;6.808;2023-01-15T06:07:36;99628.53;;;6.79;77.76
68871;BME280;55906;52.278;6.808;2023-01-15T06:10:03;99630.28;;;6.80;77.64
68871;BME280;55906;52.278;6.808;2023-01-15T06:12:31;99637.41;;;6.87;77.37
68871;BME280;55906;52.278;6.808;2023-01-15T06:14:57;99632.03;;;6.80;77.40
68871;BME280;55906;52.278;6.808;2023-01-15T06:17:25;99631.97;;;6.77;77.10
68871;BME280;55906;52.278;6.808;2023-01-15T06:19:52;99620.63;;;6.76;77.40
68871;BME280;55906;52.278;6.808;2023-01-15T06:22:19;99631.03;;;6.74;77.14
68871;BME280;55906;52.278;6.808;2023-01-15T06:24:45;99627.59;;;6.76;77.04
68871;BME280;55906;52.278;6.808;2023-01-15T06:27:12;99619.72;;;6.74;77.54
68871;BME280;55906;52.278;6.808;2023-01-15T06:29:39;99625.81;;;6.74;76.20
68871;BME280;55906;52.278;6.808;2023-01-15T06:32:05;99623.16;;;6.73;76.62
68871;BME280;55906;52.278;6.808;2023-01-15T06:34:33;99619.78;;;6.77;75.81
68871;BME280;55906;52.278;6.808;2023-01-15T06:37:00;99617.94;;;6.73;76.21
68871;BME280;55906;52.278;6.808;2023-01-15T06:39:27;99604.97;;;6.78;75.49
68871;BME280;55906;52.278;6.808;2023-01-15T06:41:54;99621.34;;;6.69;76.76
68871;BME280;55906;52.278;6.808;2023-01-15T06:44:37;99615.16;;;6.64;75.88
68871;BME280;55906;52.278;6.808;2023-01-15T06:47:21;99652.75;;;6.70;76.35
68871;BME280;55906;52.278;6.808;2023-01-15T06:49:52;99650.09;;;6.69;76.67
68871;BME280;55906;52.278;6.808;2023-01-15T06:52:19;99646.63;;;6.70;75.53
68871;BME280;55906;52.278;6.808;2023-01-15T06:54:45;99646.56;;;6.67;76.41
68871;BME280;55906;52.278;6.808;2023-01-15T06:57:12;99643.00;;;6.63;76.01
68871;BME280;55906;52.278;6.808;2023-01-15T06:59:39;99646.44;;;6.61;76.41
68871;BME280;55906;52.278;6.808;2023-01-15T07:02:06;99650.09;;;6.69;75.55
68871;BME280;55906;52.278;6.808;2023-01-15T07:04:32;99656.97;;;6.65;75.86
68871;BME280;55906;52.278;6.808;2023-01-15T07:07:00;99642.19;;;6.66;75.71
68871;BME280;55906;52.278;6.808;2023-01-15T07:09:27;99659.59;;;6.65;75.71
68871;BME280;55906;52.278;6.808;2023-01-15T07:11:54;99650.06;;;6.67;75.85
68871;BME280;55906;52.278;6.808;2023-01-15T07:14:22;99649.25;;;6.70;77.08
68871;BME280;55906;52.278;6.808;2023-01-15T07:16:50;99649.09;;;6.64;77.59
68871;BME280;55906;52.278;6.808;2023-01-15T07:19:17;99658.53;;;6.57;77.68
68871;BME280;55906;52.278;6.808;2023-01-15T07:21:44;99647.19;;;6.55;77.45
68871;BME280;55906;52.278;6.808;2023-01-15T07:24:13;99654.16;;;6.56;77.31
68871;BME280;55906;52.278;6.808;2023-01-15T07:26:40;99657.69;;;6.58;76.71
68871;BME280;55906;52.278;6.808;2023-01-15T07:29:06;99635.91;;;6.58;77.41
68871;BME280;55906;52.278;6.808;2023-01-15T07:31:33;99648.97;;;6.58;76.19
68871;BME280;55906;52.278;6.808;2023-01-15T07:34:00;99656.03;;;6.62;77.78
68871;BME280;55906;52.278;6.808;2023-01-15T07:36:27;99663.56;;;6.50;76.04
68871;BME280;55906;52.278;6.808;2023-01-15T07:38:53;99657.59;;;6.18;75.46
68871;BME280;55906;52.278;6.808;2023-01-15T07:41:22;99669.53;;;6.06;76.64
68871;BME280;55906;52.278;6.808;2023-01-15T07:44:08;99649.84;;;5.86;77.59
68871;BME280;55906;52.278;6.808;2023-01-15T07:46:52;99667.13;;;5.48;79.01
68871;BME280;55906;52.278;6.808;2023-01-15T07:49:36;99690.59;;;5.48;79.35
68871;BME280;55906;52.278;6.808;2023-01-15T07:52:13;99655.03;;;5.50;79.65
68871;BME280;55906;52.278;6.808;2023-01-15T07:54:40;99660.44;;;5.58;80.19
68871;BME280;55906;52.278;6.808;2023-01-15T07:57:08;99664.00;;;5.61;80.44
68871;BME280;55906;52.278;6.808;2023-01-15T07:59:35;99674.44;;;5.61;80.49
68871;BME280;55906;52.278;6.808;2023-01-15T08:02:02;99661.03;;;5.81;79.24
68871;BME280;55906;52.278;6.808;2023-01-15T08:04:29;99663.97;;;5.93;77.96
68871;BME280;55906;52.278;6.808;2023-01-15T08:06:58;99671.03;;;5.97;78.42
68871;BME280;55906;52.278;6.808;2023-01-15T08:09:25;99661.59;;;6.02;77.89
68871;BME280;55906;52.278;6.808;2023-01-15T08:11:51;99660.84;;;6.07;77.29
68871;BME280;55906;52.278;6.808;2023-01-15T08:14:37;99658.28;;;6.09;76.93
68871;BME280;55906;52.278;6.808;2023-01-15T08:17:21;99695.66;;;6.08;76.55
68871;BME280;55906;52.278;6.808;2023-01-15T08:19:48;99670.47;;;6.10;76.74
68871;BME280;55906;52.278;6.808;2023-01-15T08:22:15;99656.53;;;6.09;76.67
68871;BME280;55906;52.278;6.808;2023-01-15T08:24:41;99661.94;;;6.17;75.85
68871;BME280;55906;52.278;6.808;2023-01-15T08:27:08;99682.09;;;6.23;76.41
68871;BME280;55906;52.278;6.808;2023-01-15T08:29:35;99662.72;;;6.13;76.83
68871;BME280;55906;52.278;6.808;2023-01-15T08:32:03;99669.72;;;6.14;75.73
68871;BME280;55906;52.278;6.808;2023-01-15T08:34:30;99670.69;;;6.19;76.22
68871;BME280;55906;52.278;6.808;2023-01-15T08:36:56;99654.16;;;6.19;76.49
68871;BME280;55906;52.278;6.808;2023-01-15T08:39:25;99653.34;;;6.21;75.80
68871;BME280;55906;52.278;6.808;2023-01-15T08:41:52;99654.38;;;6.28;75.53
68871;BME280;55906;52.278;6.808;2023-01-15T08:44:19;99670.97;;;6.31;74.97
68871;BME280;55906;52.278;6.808;2023-01-15T08:46:48;99674.47;;;6.32;75.44
68871;BME280;55906;52.278;6.808;2023-01-15T08:49:17;99651.03;;;6.35;75.42
68871;BME280;55906;52.278;6.808;2023-01-15T08:51:44;99658.13;;;6.40;74.98
68871;BME280;55906;52.278;6.808;2023-01-15T08:54:14;99643.34;;;6.41;75.44
68871;BME280;55906;52.278;6.808;2023-01-15T08:56:40;99635.66;;;6.47;75.42
68871;BME280;55906;52.278;6.808;2023-01-15T08:59:07;99664.59;;;6.55;74.53
68871;BME280;55906;52.278;6.808;2023-01-15T09:01:34;99654.56;;;6.74;73.72
68871;BME280;55906;52.278;6.808;2023-01-15T09:04:01;99650.00;;;7.06;73.62
68871;BME280;55906;52.278;6.808;2023-01-15T09:06:29;99623.50;;;7.35;71.90
68871;BME280;55906;52.278;6.808;2023-01-15T09:08:57;99640.97;;;7.36;70.23
68871;BME280;55906;52.278;6.808;2023-01-15T09:11:24;99673.75;;;7.64;70.60
68871;BME280;55906;52.278;6.808;2023-01-15T09:13:50;99675.81;;;7.80;68.98
68871;BME280;55906;52.278;6.808;2023-01-15T09:16:19;99656.47;;;7.74;68.99
68871;BME280;55906;52.278;6.808;2023-01-15T09:18:45;99654.06;;;7.83;68.26
68871;BME280;55906;52.278;6.808;2023-01-15T09:21:12;99653.25;;;7.87;68.03
68871;BME280;55906;52.278;6.808;2023-01-15T09:23:40;99643.44;;;7.77;66.77
68871;BME280;55906;52.278;6.808;2023-01-15T09:26:20;99627.78;;;7.80;66.93
68871;BME280;55906;52.278;6.808;2023-01-15T09:28:50;99638.84;;;8.15;67.17
68871;BME280;55906;52.278;6.808;2023-01-15T09:31:16;99668.00;;;8.34;65.20
68871;BME280;55906;52.278;6.808;2023-01-15T09:33:43;99638.59;;;8.54;63.99
68871;BME280;55906;52.278;6.808;2023-01-15T09:36:14;99634.56;;;8.79;64.03
68871;BME280;55906;52.278;6.808;2023-01-15T09:38:42;99641.28;;;8.58;63.53
68871;BME280;55906;52.278;6.808;2023-01-15T09:41:11;99690.97;;;8.51;63.73
68871;BME280;55906;52.278;6.808;2023-01-15T09:44:09;99646.25;;;8.39;63.61
68871;BME280;55906;52.278;6.808;2023-01-15T09:46:50;99650.28;;;8.20;64.26
68871;BME280;55906;52.278;6.808;2023-01-15T09:49:29;99644.44;;;8.36;64.28
68871;BME280;55906;52.278;6.808;2023-01-15T09:52:07;99662.69;;;8.31;63.71
68871;BME280;55906;52.278;6.808;2023-01-15T09:54:46;99665.94;;;8.15;64.19
68871;BME280;55906;52.278;6.808;2023-01-15T09:57:15;99664.31;;;8.23;64.28
68871;BME280;55906;52.278;6.808;2023-01-15T10:06:33;99677.63;;;8.36;63.09
68871;BME280;55906;52.278;6.808;2023-01-15T10:09:10;99661.63;;;8.19;63.79
68871;BME280;55906;52.278;6.808;2023-01-15T10:11:42;99665.03;;;8.71;62.91
68871;BME280;55906;52.278;6.808;2023-01-15T10:14:33;99700.88;;;8.70;61.70
68871;BME280;55906;52.278;6.808;2023-01-15T10:17:06;99673.44;;;8.47;62.37
68871;BME280;55906;52.278;6.808;2023-01-15T10:19:40;99697.91;;;8.47;62.78
68871;BME280;55906;52.278;6.808;2023-01-15T10:22:11;99695.16;;;8.38;62.96
68871;BME280;55906;52.278;6.808;2023-01-15T10:24:46;99679.19;;;8.26;63.45
68871;BME280;55906;52.278;6.808;2023-01-15T10:27:21;99684.31;;;8.18;62.57
68871;BME280;55906;52.278;6.808;2023-01-15T10:29:51;99677.53;;;8.31;62.17
68871;BME280;55906;52.278;6.808;2023-01-15T10:32:30;99679.66;;;8.55;61.67
68871;BME280;55906;52.278;6.808;2023-01-15T10:35:06;99689.38;;;8.62;61.26
68871;BME280;55906;52.278;6.808;2023-01-15T10:37:40;99678.91;;;8.62;61.53
68871;BME280;55906;52.278;6.808;2023-01-15T10:40:21;99663.13;;;8.59;61.36
68871;BME280;55906;52.278;6.808;2023-01-15T10:42:57;99658.75;;;8.59;61.88
68871;BME280;55906;52.278;6.808;2023-01-15T10:45:30;99676.44;;;8.74;61.52
68871;BME280;55906;52.278;6.808;2023-01-15T10:48:02;99668.75;;;8.86;60.66
68871;BME280;55906;52.278;6.808;2023-01-15T10:50:31;99669.41;;;8.72;60.83
68871;BME280;55906;52.278;6.808;2023-01-15T10:53:03;99655.56;;;8.80;60.88
68871;BME280;55906;52.278;6.808;2023-01-15T10:55:35;99667.13;;;8.97;61.10
68871;BME280;55906;52.278;6.808;2023-01-15T10:58:10;99669.59;;;8.84;61.42
68871;BME280;55906;52.278;6.808;2023-01-15T11:00:38;99689.69;;;8.83;61.69
68871;BME280;55906;52.278;6.808;2023-01-15T11:03:09;99680.09;;;8.85;61.51
68871;BME280;55906;52.278;6.808;2023-01-15T11:05:39;99661.50;;;8.67;62.03
68871;BME280;55906;52.278;6.808;2023-01-15T11:08:10;99689.22;;;8.50;61.66
68871;BME280;55906;52.278;6.808;2023-01-15T11:10:39;99649.69;;;8.36;62.46
68871;BME280;55906;52.278;6.808;2023-01-15T11:13:19;99669.88;;;8.42;62.98
68871;BME280;55906;52.278;6.808;2023-01-15T11:16:04;99657.63;;;8.41;63.10
68871;BME280;55906;52.278;6.808;2023-01-15T11:19:04;99640.09;;;8.37;62.85
68871;BME280;55906;52.278;6.808;2023-01-15T11:21:50;99670.56;;;8.31;63.00
68871;BME280;55906;52.278;6.808;2023-01-15T11:24:18;99669.66;;;8.29;63.23
68871;BME280;55906;52.278;6.808;2023-01-15T11:26:46;99648.53;;;8.20;63.76
68871;BME280;55906;52.278;6.808;2023-01-15T11:29:21;99673.06;;;8.25;63.48
68871;BME280;55906;52.278;6.808;2023-01-15T11:31:50;99685.28;;;8.23;63.94
68871;BME280;55906;52.278;6.808;2023-01-15T11:34:19;99638.03;;;8.17;63.40
68871;BME280;55906;52.278;6.808;2023-01-15T11:36:46;99661.59;;;8.17;63.66
68871;BME280;55906;52.278;6.808;2023-01-15T11:39:23;99660.88;;;8.27;63.79
68871;BME280;55906;52.278;6.808;2023-01-15T11:41:57;99659.19;;;8.31;63.90
68871;BME280;55906;52.278;6.808;2023-01-15T11:44:51;99600.06;;;8.48;62.87
68871;BME280;55906;52.278;6.808;2023-01-15T11:47:36;99622.94;;;8.60;62.63
68871;BME280;55906;52.278;6.808;2023-01-15T11:50:20;99638.06;;;8.79;61.78
68871;BME280;55906;52.278;6.808;2023-01-15T11:53:06;99625.72;;;8.71;62.18
68871;BME280;55906;52.278;6.808;2023-01-15T11:55:34;99692.94;;;8.67;61.64
68871;BME280;55906;52.278;6.808;2023-01-15T11:58:01;99656.16;;;8.61;61.55
68871;BME280;55906;52.278;6.808;2023-01-15T12:00:32;99665.75;;;8.59;61.82
68871;BME280;55906;52.278;6.808;2023-01-15T12:03:03;99636.16;;;8.68;61.16
68871;BME280;55906;52.278;6.808;2023-01-15T12:05:34;99622.41;;;8.87;61.29
68871;BME280;55906;52.278;6.808;2023-01-15T12:08:03;99625.97;;;8.92;61.18
68871;BME280;55906;52.278;6.808;2023-01-15T12:10:44;99619.78;;;8.85;60.34
68871;BME280;55906;52.278;6.808;2023-01-15T12:13:37;99659.84;;;8.75;60.38
68871;BME280;55906;52.278;6.808;2023-01-15T12:16:15;99649.09;;;8.55;62.97
68871;BME280;55906;52.278;6.808;2023-01-15T12:18:53;99634.38;;;8.65;63.37
68871;BME280;55906;52.278;6.808;2023-01-15T12:21:52;99620.88;;;9.04;62.22
68871;BME280;55906;52.278;6.808;2023-01-15T12:24:42;99666.16;;;8.89;61.59
68871;BME280;55906;52.278;6.808;2023-01-15T12:27:22;99646.03;;;8.87;62.19
68871;BME280;55906;52.278;6.808;2023-01-15T12:29:58;99639.91;;;8.88;62.26
68871;BME280;55906;52.278;6.808;2023-01-15T12:32:33;99666.97;;;8.85;62.35
68871;BME280;55906;52.278;6.808;2023-01-15T12:35:03;99633.72;;;8.81;62.43
68871;BME280;55906;52.278;6.808;2023-01-15T12:37:36;99631.91;;;8.77;62.64
68871;BME280;55906;52.278;6.808;2023-01-15T12:40:18;99636.25;;;8.74;62.56
68871;BME280;55906;52.278;6.808;2023-01-15T12:42:49;99639.50;;;8.56;65.85
68871;BME280;55906;52.278;6.808;2023-01-15T12:45:37;99639.75;;;8.15;69.19
68871;BME280;55906;52.278;6.808;2023-01-15T12:48:12;99668.28;;;7.98;70.62
68871;BME280;55906;52.278;6.808;2023-01-15T12:50:43;99663.78;;;7.90;71.44
68871;BME280;55906;52.278;6.808;2023-01-15T12:53:15;99729.75;;;7.72;70.66
68871;BME280;55906;52.278;6.808;2023-01-15T12:55:47;99664.19;;;7.66;71.23
68871;BME280;55906;52.278;6.808;2023-01-15T12:58:27;99647.66;;;7.68;71.43
68871;BME280;55906;52.278;6.808;2023-01-15T13:01:02;99632.84;;;7.69;71.53
68871;BME280;55906;52.278;6.808;2023-01-15T13:03:35;99618.97;;;7.75;71.08
68871;BME280;55906;52.278;6.808;2023-01-15T13:06:05;99628.56;;;7.74;71.47
68871;BME280;55906;52.278;6.808;2023-01-15T13:08:36;99637.31;;;7.75;71.08
68871;BME280;55906;52.278;6.808;2023-01-15T13:11:08;99623.34;;;7.76;71.16
68871;BME280;55906;52.278;6.808;2023-01-15T13:13:38;99654.06;;;7.83;70.91
68871;BME280;55906;52.278;6.808;2023-01-15T13:16:17;99614.06;;;7.93;70.90
68871;BME280;55906;52.278;6.808;2023-01-15T13:19:04;99607.84;;;7.86;70.73
68871;BME280;55906;52.278;6.808;2023-01-15T13:21:35;99620.09;;;7.87;70.83
68871;BME280;55906;52.278;6.808;2023-01-15T13:24:42;99653.16;;;7.81;71.72
68871;BME280;55906;52.278;6.808;2023-01-15T13:27:28;99631.84;;;7.62;73.83
68871;BME280;55906;52.278;6.808;2023-01-15T13:30:11;99696.97;;;7.46;74.85
68871;BME280;55906;52.278;6.808;2023-01-15T13:32:42;99652.41;;;7.41;75.87
68871;BME280;55906;52.278;6.808;2023-01-15T13:35:20;99661.00;;;7.34;76.02
68871;BME280;55906;52.278;6.808;2023-01-15T13:37:52;99665.25;;;7.29;75.64
68871;BME280;55906;52.278;6.808;2023-01-15T13:40:24;99671.28;;;7.25;75.22